Alburg, Vermont
Current Conditions -  °F | °C
As of 2:35 PM on Wednesday 26 Nov 2014 (Local Time) from KFSO Reporting Station
Overcast Overcast  
Wind Chill: -3°   Ceiling: 3300
Heat Index:   Visibility: 10mi
Dew Point: -6°   Wind: 5mph
Humidity: 68%   Direction: 360°N
Pressure: 30.17"   Gusts: NA
Location:  44.9685°N, 73.281°W
Report Text: KFSO 261835Z AUTO 36004KT 10SM OVC033 00/M05 A3017 RMK AO2 T10021055
Loading
Personal Weather Stations






























Interactive Weather Map New forecast layout! Learn more

10-Day Weather Forecast

Advertisements
Track Severe Weather on mobile